createdAt,value
2019-05-29T00:03:59.804Z,98123.81
2019-05-29T00:09:08.125Z,98127.49
2019-05-29T00:14:22.598Z,98134.16
2019-05-29T00:19:23.099Z,98139.83
2019-05-29T00:24:29.645Z,98144.61
2019-05-29T00:29:36.242Z,98147.08
2019-05-29T00:34:42.826Z,98153.34
2019-05-29T00:39:49.316Z,98160.39
2019-05-29T00:44:55.799Z,98169.40
2019-05-29T00:50:02.246Z,98170.42
2019-05-29T00:55:10.409Z,98178.02
2019-05-29T01:00:17.926Z,98177.31
2019-05-29T01:05:24.579Z,98187.59
2019-05-29T01:10:31.190Z,98201.16
2019-05-29T01:15:37.790Z,98198.91
2019-05-29T01:20:44.387Z,98203.31
2019-05-29T01:25:50.759Z,98212.94
2019-05-29T01:30:57.815Z,98218.14
2019-05-29T01:36:04.299Z,98222.94
2019-05-29T01:41:10.770Z,98229.12
2019-05-29T01:46:17.318Z,98231.91
2019-05-29T01:51:23.823Z,98243.44
2019-05-29T01:56:30.653Z,98262.63
2019-05-29T02:01:37.179Z,98267.48
2019-05-29T02:06:43.860Z,98276.39
2019-05-29T02:11:50.402Z,98288.40
2019-05-29T02:16:57.029Z,98292.66
2019-05-29T02:22:03.584Z,98298.14
2019-05-29T02:27:10.272Z,98300.40
2019-05-29T02:32:17.705Z,98311.86
2019-05-29T02:37:26.121Z,98317.20
2019-05-29T02:42:33.745Z,98327.02
2019-05-29T02:47:40.204Z,98334.41
2019-05-29T02:52:46.810Z,98345.11
2019-05-29T02:57:53.397Z,98359.73
2019-05-29T03:02:59.863Z,98366.95
2019-05-29T03:08:06.571Z,98378.52
2019-05-29T03:13:13.416Z,98391.31
2019-05-29T03:18:19.882Z,98397.27
2019-05-29T03:23:26.714Z,98404.35
2019-05-29T03:28:38.283Z,98406.19
2019-05-29T03:33:49.792Z,98409.67
2019-05-29T03:38:54.587Z,98428.03
2019-05-29T03:44:01.086Z,98434.42
2019-05-29T03:49:07.648Z,98450.52
2019-05-29T03:54:14.025Z,98461.66
2019-05-29T03:59:20.622Z,98471.28
2019-05-29T04:04:28.923Z,98486.20
2019-05-29T04:09:37.233Z,98491.52
2019-05-29T04:14:44.234Z,98497.41
2019-05-29T04:19:51.652Z,98503.28
2019-05-29T04:25:01.131Z,98517.05
2019-05-29T04:30:08.390Z,98535.23
2019-05-29T04:35:14.913Z,98539.48
2019-05-29T04:40:21.541Z,98546.28
2019-05-29T04:45:28.956Z,98560.52
2019-05-29T04:50:38.182Z,98572.16
2019-05-29T04:55:44.105Z,98588.32
2019-05-29T05:00:59.239Z,98591.21
2019-05-29T05:05:58.985Z,98603.45
2019-05-29T05:11:05.914Z,98606.43
2019-05-29T05:16:13.611Z,98622.38
2019-05-29T05:21:20.080Z,98628.86
2019-05-29T05:26:26.613Z,98640.31
2019-05-29T05:31:34.853Z,98648.92
2019-05-29T05:36:41.673Z,98656.98
2019-05-29T05:41:48.212Z,98661.86
2019-05-29T05:46:55.236Z,98662.13
2019-05-29T05:52:01.764Z,98669.63
2019-05-29T05:57:08.256Z,98668.84
2019-05-29T06:02:14.980Z,98673.72
2019-05-29T06:07:21.562Z,98673.61
2019-05-29T06:12:28.142Z,98688.36
2019-05-29T06:17:34.666Z,98692.64
2019-05-29T06:22:41.255Z,98697.87
2019-05-29T06:27:47.872Z,98699.89
2019-05-29T06:32:54.543Z,98706.00
2019-05-29T06:38:00.959Z,98708.64
2019-05-29T06:43:11.983Z,98715.05
2019-05-29T06:48:41.734Z,98709.39
2019-05-29T06:53:35.713Z,98719.36
2019-05-29T06:58:42.448Z,98729.81
2019-05-29T07:03:49.116Z,98732.77
2019-05-29T07:08:55.924Z,98737.02
2019-05-29T07:14:03.488Z,98734.14
2019-05-29T07:19:25.237Z,98748.44
2019-05-29T07:24:18.547Z,98756.02
2019-05-29T07:29:26.049Z,98755.59
2019-05-29T07:34:49.824Z,98760.16
2019-05-29T07:39:41.472Z,98763.78
2019-05-29T07:44:48.229Z,98773.45
2019-05-29T07:49:54.753Z,98784.04
2019-05-29T07:55:01.359Z,98787.33
2019-05-29T08:00:09.054Z,98797.61
2019-05-29T08:05:16.892Z,98806.56
2019-05-29T08:10:24.028Z,98808.63
2019-05-29T08:15:30.606Z,98814.83
2019-05-29T08:20:37.122Z,98818.55
2019-05-29T08:25:43.698Z,98824.31
2019-05-29T08:30:55.742Z,98827.58
2019-05-29T08:36:00.327Z,98828.45
2019-05-29T08:41:06.939Z,98829.03
2019-05-29T08:46:13.503Z,98830.70
2019-05-29T08:51:20.084Z,98839.91
2019-05-29T08:56:26.579Z,98845.23
2019-05-29T09:01:33.078Z,98852.55
2019-05-29T09:06:39.585Z,98852.39
2019-05-29T09:11:47.505Z,98848.57
2019-05-29T09:16:55.342Z,98864.25
2019-05-29T09:22:01.929Z,98863.17
2019-05-29T09:27:08.564Z,98871.72
2019-05-29T09:32:16.609Z,98882.58
2019-05-29T09:37:24.518Z,98888.03
2019-05-29T09:42:31.230Z,98879.17
2019-05-29T09:47:37.963Z,98891.01
2019-05-29T09:52:44.600Z,98894.19
2019-05-29T09:57:52.414Z,98902.05
2019-05-29T10:02:59.548Z,98900.84
2019-05-29T10:08:06.611Z,98898.14
2019-05-29T10:13:13.263Z,98900.95
2019-05-29T10:18:31.942Z,98903.37
2019-05-29T10:23:29.123Z,98914.38
2019-05-29T10:28:49.946Z,98928.88
2019-05-29T10:33:44.200Z,98929.28
2019-05-29T10:38:50.813Z,98915.39
2019-05-29T10:43:57.581Z,98919.42
2019-05-29T10:49:04.917Z,98918.66
2019-05-29T10:54:11.731Z,98906.24
2019-05-29T10:59:19.326Z,98912.47
2019-05-29T11:04:26.014Z,98913.79
2019-05-29T11:09:43.917Z,98922.56
2019-05-29T11:14:40.939Z,98924.96
2019-05-29T11:19:47.592Z,98924.47
2019-05-29T11:24:54.264Z,98914.06
2019-05-29T11:30:02.536Z,98907.86
2019-05-29T11:35:11.278Z,98921.84
2019-05-29T11:40:18.413Z,98922.65
2019-05-29T11:45:25.462Z,98920.36
2019-05-29T11:50:32.110Z,98923.20
2019-05-29T11:55:38.609Z,98914.07
2019-05-29T12:00:45.284Z,98928.45
2019-05-29T12:05:53.497Z,98926.66
2019-05-29T12:11:01.563Z,98928.22
2019-05-29T12:16:08.410Z,98934.39
2019-05-29T12:21:15.066Z,98936.39
2019-05-29T12:26:23.192Z,98923.69
2019-05-29T12:31:31.175Z,98929.23
2019-05-29T12:36:37.847Z,98933.45
2019-05-29T12:41:44.430Z,98929.73
2019-05-29T12:46:51.010Z,98929.73
2019-05-29T12:51:57.734Z,98929.61
2019-05-29T12:57:04.558Z,98933.25
2019-05-29T13:02:11.373Z,98926.09
2019-05-29T13:07:17.960Z,98920.95
2019-05-29T13:12:24.374Z,98936.95
2019-05-29T13:17:30.953Z,98923.83
2019-05-29T13:22:37.574Z,98926.19
2019-05-29T13:27:44.139Z,98927.27
2019-05-29T13:32:50.682Z,98928.86
2019-05-29T13:37:57.367Z,98927.91
2019-05-29T13:43:11.446Z,98921.66
2019-05-29T13:48:12.226Z,98923.84
2019-05-29T13:53:18.873Z,98913.95
2019-05-29T13:58:25.342Z,98924.80
2019-05-29T14:03:32.986Z,98936.33
2019-05-29T14:08:39.580Z,98940.75
2019-05-29T14:13:46.214Z,98927.58
2019-05-29T14:18:52.920Z,98939.09
2019-05-29T14:24:00.397Z,98946.25
2019-05-29T14:29:07.677Z,98949.13
2019-05-29T14:34:14.290Z,98950.19
2019-05-29T14:39:20.950Z,98949.27
2019-05-29T14:44:27.568Z,98946.32
2019-05-29T14:49:36.007Z,98936.89
2019-05-29T14:54:42.981Z,98946.10
2019-05-29T14:59:51.681Z,98941.13
2019-05-29T15:04:58.315Z,98952.84
2019-05-29T15:10:12.430Z,98949.83
2019-05-29T15:15:16.504Z,98951.20
2019-05-29T15:20:22.540Z,98949.44
2019-05-29T15:25:29.223Z,98954.54
2019-05-29T15:30:35.924Z,98954.80
2019-05-29T15:35:42.535Z,98954.22
2019-05-29T15:40:49.329Z,98953.81
2019-05-29T15:45:56.803Z,98952.38
2019-05-29T15:51:03.448Z,98957.00
2019-05-29T15:56:25.559Z,98961.02
2019-05-29T16:01:23.817Z,98952.74
2019-05-29T16:06:32.956Z,98957.53
2019-05-29T16:11:43.083Z,98961.34
2019-05-29T16:16:49.648Z,98950.84
2019-05-29T16:21:56.220Z,98961.56
2019-05-29T16:27:08.724Z,98969.34
2019-05-29T16:32:11.587Z,98976.50
2019-05-29T16:37:19.324Z,98980.32
2019-05-29T16:42:25.910Z,98974.78
2019-05-29T16:47:32.467Z,98982.50
2019-05-29T16:52:39.209Z,98981.53
2019-05-29T16:57:45.919Z,98987.42
2019-05-29T17:02:53.054Z,98989.09
2019-05-29T17:07:59.792Z,99001.42
2019-05-29T17:13:07.867Z,99007.28
2019-05-29T17:18:16.727Z,99007.63
2019-05-29T17:23:25.032Z,99003.84
2019-05-29T17:28:31.887Z,99010.48
2019-05-29T17:33:38.704Z,99020.27
2019-05-29T17:38:45.445Z,99019.31
2019-05-29T17:43:55.162Z,99025.70
2019-05-29T17:49:01.859Z,99036.59
2019-05-29T17:54:08.507Z,99030.70
2019-05-29T17:59:16.450Z,99045.38
2019-05-29T18:04:24.918Z,99046.20
2019-05-29T18:09:31.597Z,99054.98
2019-05-29T18:14:40.620Z,99061.62
2019-05-29T18:19:47.212Z,99062.27
2019-05-29T18:24:53.837Z,99061.65
2019-05-29T18:30:00.384Z,99070.91
2019-05-29T18:35:09.685Z,99080.25
2019-05-29T18:40:16.729Z,99082.16
2019-05-29T18:45:25.126Z,99087.53
2019-05-29T18:50:32.721Z,99087.69
2019-05-29T18:55:39.650Z,99093.45
2019-05-29T19:00:46.301Z,99095.27
2019-05-29T19:05:54.107Z,99103.66
2019-05-29T19:11:01.886Z,99106.15
2019-05-29T19:16:08.592Z,99118.70
2019-05-29T19:21:15.177Z,99132.51
2019-05-29T19:26:22.677Z,99144.55
2019-05-29T19:31:31.207Z,99152.06
2019-05-29T19:36:38.076Z,99159.16
2019-05-29T19:41:44.655Z,99162.57
2019-05-29T19:46:54.041Z,99157.83
2019-05-29T19:51:59.584Z,99184.20
2019-05-29T19:57:06.192Z,99185.52
2019-05-29T20:02:12.799Z,99193.94
2019-05-29T20:07:19.489Z,99196.69
2019-05-29T20:12:25.961Z,99203.11
2019-05-29T20:17:32.598Z,99202.14
2019-05-29T20:22:39.243Z,99214.11
2019-05-29T20:27:45.721Z,99215.12
2019-05-29T20:32:52.305Z,99217.31
2019-05-29T20:37:58.756Z,99227.11
2019-05-29T20:43:05.397Z,99232.41
2019-05-29T20:48:12.122Z,99224.77
2019-05-29T20:53:18.901Z,99239.67
2019-05-29T20:58:25.469Z,99240.98
2019-05-29T21:03:32.299Z,99242.80
2019-05-29T21:08:39.065Z,99249.92
2019-05-29T21:13:45.747Z,99250.91
2019-05-29T21:18:52.333Z,99254.20
2019-05-29T21:23:58.861Z,99251.88
2019-05-29T21:29:05.478Z,99248.34
2019-05-29T21:34:12.154Z,99259.13
2019-05-29T21:39:18.756Z,99259.73
2019-05-29T21:44:25.222Z,99252.40
2019-05-29T21:49:31.739Z,99257.97
2019-05-29T21:54:39.322Z,99265.22
2019-05-29T21:59:46.100Z,99263.88
2019-05-29T22:04:52.727Z,99268.96
2019-05-29T22:09:59.219Z,99268.03
2019-05-29T22:15:06.504Z,99272.13
2019-05-29T22:20:13.235Z,99285.37
2019-05-29T22:25:19.932Z,99281.02
2019-05-29T22:30:26.541Z,99293.78
2019-05-29T22:35:33.538Z,99290.17
2019-05-29T22:40:41.854Z,99297.67
2019-05-29T22:45:48.385Z,99297.22
2019-05-29T22:50:55.723Z,99296.11
2019-05-29T22:56:02.454Z,99294.53
2019-05-29T23:01:09.176Z,99283.59
2019-05-29T23:06:15.720Z,99289.77
2019-05-29T23:11:22.338Z,99288.22
2019-05-29T23:16:28.777Z,99286.98
2019-05-29T23:21:35.290Z,99287.83
2019-05-29T23:26:41.908Z,99281.53
2019-05-29T23:31:48.741Z,99280.55
2019-05-29T23:36:55.179Z,99288.67
2019-05-29T23:42:01.741Z,99278.98
2019-05-29T23:47:08.422Z,99277.27
2019-05-29T23:52:14.940Z,99279.50
2019-05-29T23:57:21.389Z,99287.53
